Time;durP1;ratioP1;P1;durP2;ratioP2;P2;SDS_P1;SDS_P2;PMS_P1;PMS_P2;Temp;Humidity;BMP_temperature;BMP_pressure;BME280_temperature;BME280_humidity;BME280_pressure;Samples;Min_cycle;Max_cycle;Signal;HPM_P1;HPM_P2
2023/01/18 00:01:34;;;;;;;21.50;11.30;;;;;;;-1.70;90.45;99079.34;5024192;28;20469;-71
2023/01/18 00:04:00;;;;;;;19.83;11.07;;;;;;;-1.67;90.49;99079.47;5023975;28;20045;-71
2023/01/18 00:06:26;;;;;;;24.90;11.82;;;;;;;-1.66;90.33;99077.81;5024070;28;20083;-71
2023/01/18 00:08:53;;;;;;;22.67;12.15;;;;;;;-1.66;90.40;99081.22;5023818;28;20057;-71
2023/01/18 00:11:18;;;;;;;22.80;11.52;;;;;;;-1.68;89.76;99077.75;5024314;28;20067;-71
2023/01/18 00:13:44;;;;;;;21.33;11.30;;;;;;;-1.69;89.96;99070.88;5024224;28;20056;-71
2023/01/18 00:16:12;;;;;;;23.00;11.77;;;;;;;-1.69;89.79;99067.47;5024112;28;20480;-71
2023/01/18 00:18:37;;;;;;;22.00;11.05;;;;;;;-1.69;90.55;99080.25;5023886;28;20536;-71
2023/01/18 00:21:05;;;;;;;23.20;11.88;;;;;;;-1.72;90.51;99075.88;5024119;28;20041;-71
2023/01/18 00:23:30;;;;;;;22.27;11.85;;;;;;;-1.71;90.75;99082.69;5023974;28;20083;-70
2023/01/18 00:26:00;;;;;;;21.98;11.98;;;;;;;-1.70;90.91;99092.13;5023799;28;20033;-71
2023/01/18 00:28:26;;;;;;;22.80;11.88;;;;;;;-1.70;90.91;99089.56;5023784;28;20079;-71
2023/01/18 00:30:51;;;;;;;20.45;11.70;;;;;;;-1.69;90.85;99083.66;5023928;28;20431;-71
2023/01/18 00:33:16;;;;;;;22.10;11.70;;;;;;;-1.68;91.23;99087.06;5024123;28;20025;-71
2023/01/18 00:35:41;;;;;;;20.15;11.77;;;;;;;-1.70;90.98;99089.56;5023612;28;20068;-71
2023/01/18 00:38:09;;;;;;;22.98;11.93;;;;;;;-1.74;90.56;99090.22;5023813;28;20132;-71
2023/01/18 00:40:35;;;;;;;23.48;12.10;;;;;;;-1.75;90.41;99089.38;5023815;28;20037;-71
2023/01/18 00:45:44;;;;;;;27.33;12.02;;;;;;;-1.73;90.51;99099.63;5024237;28;20040;-71
2023/01/18 00:48:09;;;;;;;18.10;10.85;;;;;;;-1.73;90.15;99086.88;5023901;28;20021;-71
2023/01/18 00:50:34;;;;;;;21.10;11.18;;;;;;;-1.73;89.67;99094.53;5023763;28;20033;-71
2023/01/18 00:53:00;;;;;;;18.63;10.80;;;;;;;-1.74;89.84;99092.78;5023631;28;20491;-71
2023/01/18 00:55:25;;;;;;;23.17;11.82;;;;;;;-1.75;90.06;99096.16;5023220;28;20038;-71
2023/01/18 00:57:51;;;;;;;18.67;10.70;;;;;;;-1.79;89.90;99096.81;5023381;28;20088;-70
2023/01/18 01:00:17;;;;;;;22.05;12.00;;;;;;;-1.82;90.21;99096.69;5023417;28;20804;-71
2023/01/18 01:02:43;;;;;;;20.83;11.18;;;;;;;-1.83;90.26;99094.94;5023181;28;20083;-71
2023/01/18 01:08:01;;;;;;;25.25;11.80;;;;;;;-1.83;90.31;99107.69;5023632;28;20080;-70
2023/01/18 01:10:27;;;;;;;19.25;10.93;;;;;;;-1.85;90.51;99101.66;5022791;28;20057;-71
2023/01/18 01:26:32;;;;;;;24.67;11.70;;;;;;;-1.84;90.14;99104.28;5027053;28;20578;-71
2023/01/18 01:28:57;;;;;;;20.75;10.77;;;;;;;-1.85;90.00;99114.44;5026935;28;20073;-71
2023/01/18 01:31:22;;;;;;;19.02;11.27;;;;;;;-1.88;90.97;99106.59;5027098;28;20380;-71
2023/01/18 01:33:48;;;;;;;19.20;10.98;;;;;;;-1.89;91.26;99117.66;5027096;28;20032;-71
2023/01/18 01:36:16;;;;;;;21.48;10.77;;;;;;;-1.88;90.90;99129.59;5026945;28;20037;-71
2023/01/18 01:38:42;;;;;;;20.55;10.48;;;;;;;-1.90;91.05;99126.97;5026684;28;20125;-71
2023/01/18 01:41:13;;;;;;;19.60;10.50;;;;;;;-1.89;90.89;99125.31;5026608;28;20104;-71
2023/01/18 01:43:50;;;;;;;17.95;10.00;;;;;;;-1.88;90.43;99129.59;5027136;28;20041;-71
2023/01/18 01:46:38;;;;;;;18.02;9.95;;;;;;;-1.88;90.89;99139.78;5026991;28;20122;-71
2023/01/18 01:49:31;;;;;;;18.77;9.98;;;;;;;-1.89;90.74;99140.63;5026943;28;20044;-71
2023/01/18 01:52:04;;;;;;;16.90;10.23;;;;;;;-1.91;90.76;99140.56;5026596;28;20049;-71
2023/01/18 01:54:35;;;;;;;19.17;9.93;;;;;;;-1.94;90.71;99143.81;5026225;28;20029;-71
2023/01/18 01:57:06;;;;;;;21.42;11.05;;;;;;;-1.95;90.25;99153.97;5026753;28;20048;-71
2023/01/18 01:59:36;;;;;;;16.65;10.30;;;;;;;-1.99;90.35;99145.28;5025437;28;20053;-72
2023/01/18 02:02:02;;;;;;;22.73;10.00;;;;;;;-2.00;90.64;99146.09;5026222;28;20049;-71
2023/01/18 02:04:28;;;;;;;18.55;9.90;;;;;;;-2.01;90.68;99143.50;5027062;28;20036;-71
2023/01/18 02:06:53;;;;;;;17.45;9.73;;;;;;;-2.02;90.91;99145.16;5026832;28;20037;-71
2023/01/18 02:09:22;;;;;;;18.63;10.52;;;;;;;-2.04;91.66;99139.09;5026360;28;20075;-71
2023/01/18 02:11:50;;;;;;;20.52;10.05;;;;;;;-2.03;91.44;99145.94;5026142;28;20021;-71
2023/01/18 02:14:16;;;;;;;20.35;10.20;;;;;;;-2.03;91.48;99148.50;5026210;28;20029;-71
2023/01/18 02:17:12;;;;;;;17.38;9.93;;;;;;;-2.01;91.18;99133.28;5026240;28;20424;-71
2023/01/18 02:19:49;;;;;;;19.42;10.13;;;;;;;-2.02;91.18;99131.53;5026023;28;20034;-71
2023/01/18 02:22:43;;;;;;;23.00;10.25;;;;;;;-2.01;91.27;99129.03;5025998;28;20040;-71
2023/01/18 02:25:40;;;;;;;20.95;10.98;;;;;;;-2.02;90.91;99131.53;5025434;28;20112;-71
2023/01/18 02:28:16;;;;;;;19.20;10.52;;;;;;;-2.06;91.47;99137.28;5025539;28;20072;-71
2023/01/18 02:31:07;;;;;;;17.08;9.52;;;;;;;-2.10;91.53;99139.69;5026095;28;20022;-71
2023/01/18 02:33:57;;;;;;;16.63;9.80;;;;;;;-2.12;91.55;99146.38;5025662;28;20046;-72
2023/01/18 02:36:55;;;;;;;19.10;10.52;;;;;;;-2.10;91.48;99151.56;5025701;28;20026;-71
2023/01/18 02:39:51;;;;;;;18.90;10.30;;;;;;;-2.12;91.77;99153.19;5025960;28;20025;-71
2023/01/18 02:47:59;;;;;;;23.48;10.90;;;;;;;-2.14;91.49;99157.34;5026009;28;20056;-71
2023/01/18 02:50:26;;;;;;;21.75;10.70;;;;;;;-2.16;91.99;99166.59;5025377;28;20030;-71
2023/01/18 02:52:52;;;;;;;19.48;10.38;;;;;;;-2.16;91.95;99164.03;5025078;28;20406;-71
2023/01/18 02:55:23;;;;;;;20.75;10.63;;;;;;;-2.16;92.08;99164.03;5025354;28;20022;-71
2023/01/18 02:57:49;;;;;;;19.52;11.60;;;;;;;-2.15;91.67;99173.47;5024835;28;20049;-71
2023/01/18 03:00:17;;;;;;;20.05;10.93;;;;;;;-2.15;92.30;99168.34;5025297;28;20578;-71
2023/01/18 03:02:47;;;;;;;20.38;10.88;;;;;;;-2.17;92.00;99168.28;5024980;28;20529;-71
2023/01/18 03:05:13;;;;;;;19.75;11.52;;;;;;;-2.17;92.01;99162.28;5024906;28;20025;-71
2023/01/18 03:07:47;;;;;;;19.45;10.50;;;;;;;-2.17;91.57;99163.19;5025415;28;20060;-71
2023/01/18 03:10:13;;;;;;;16.90;9.52;;;;;;;-2.17;91.69;99159.72;5025021;28;20060;-71
2023/01/18 03:12:51;;;;;;;19.80;10.70;;;;;;;-2.20;92.20;99165.59;5024659;28;20083;-71
2023/01/18 03:15:25;;;;;;;19.80;10.93;;;;;;;-2.19;92.53;99163.91;5024901;28;20034;-71
2023/01/18 03:17:57;;;;;;;19.73;10.85;;;;;;;-2.19;92.22;99166.44;5025300;28;20030;-71
2023/01/18 03:20:26;;;;;;;20.48;11.38;;;;;;;-2.19;92.05;99163.91;5025239;28;20038;-71
2023/01/18 03:25:56;;;;;;;18.38;10.18;;;;;;;-2.19;91.76;99166.44;5024269;28;20052;-71
2023/01/18 03:34:23;;;;;;;18.83;10.55;;;;;;;-2.29;92.05;99166.03;5024340;28;20136;-71
2023/01/18 03:36:51;;;;;;;18.40;10.27;;;;;;;-2.32;92.54;99165.88;5024690;28;20045;-71
2023/01/18 03:39:39;;;;;;;17.13;9.85;;;;;;;-2.29;92.42;99171.13;5024847;28;20043;-71
2023/01/18 03:42:19;;;;;;;19.88;10.60;;;;;;;-2.30;92.22;99174.47;5024428;28;20273;-71
2023/01/18 03:44:54;;;;;;;18.77;10.00;;;;;;;-2.30;92.08;99177.03;5023967;28;20100;-71
2023/01/18 03:47:20;;;;;;;17.23;9.98;;;;;;;-2.34;92.13;99175.13;5024661;28;20032;-71
2023/01/18 03:49:46;;;;;;;19.02;10.23;;;;;;;-2.38;91.64;99180.88;5024485;28;20037;-71
2023/01/18 03:52:23;;;;;;;20.73;10.30;;;;;;;-2.43;91.57;99189.09;5024341;28;20399;-71
2023/01/18 03:55:01;;;;;;;17.63;9.88;;;;;;;-2.54;91.01;99191.16;5024166;28;20581;-71
2023/01/18 03:58:04;;;;;;;18.38;10.65;;;;;;;-2.63;91.50;99197.53;5023897;28;20419;-71
2023/01/18 04:00:30;;;;;;;19.35;10.70;;;;;;;-2.67;91.61;99203.28;5024562;28;20033;-71
2023/01/18 04:02:55;;;;;;;19.73;10.93;;;;;;;-2.72;91.95;99207.28;5024287;28;20032;-71
2023/01/18 04:05:21;;;;;;;19.77;11.00;;;;;;;-2.75;91.75;99211.34;5023636;28;20025;-71
2023/01/18 04:07:47;;;;;;;17.13;10.77;;;;;;;-2.78;92.23;99216.28;5024122;28;20021;-71
2023/01/18 04:10:12;;;;;;;20.95;10.90;;;;;;;-2.80;92.56;99217.09;5024264;28;20063;-71
2023/01/18 04:12:37;;;;;;;18.75;10.60;;;;;;;-2.80;92.61;99213.66;5024316;28;20065;-71
2023/01/18 04:15:03;;;;;;;18.80;11.57;;;;;;;-2.83;92.79;99213.53;5023761;28;20033;-71
2023/01/18 04:17:29;;;;;;;20.30;11.35;;;;;;;-2.86;93.06;99213.38;5024040;28;20021;-71
2023/01/18 04:19:54;;;;;;;21.27;10.98;;;;;;;-2.86;93.36;99218.47;5023688;28;20022;-71
2023/01/18 04:22:20;;;;;;;23.38;11.65;;;;;;;-2.85;93.35;99223.63;5024261;28;20087;-71
2023/01/18 04:24:45;;;;;;;21.10;11.52;;;;;;;-2.84;93.69;99225.41;5024261;28;20430;-71
2023/01/18 04:27:11;;;;;;;22.00;11.90;;;;;;;-2.83;93.48;99221.16;5023499;28;20118;-71
2023/01/18 04:29:36;;;;;;;18.63;11.23;;;;;;;-2.80;92.90;99223.88;5023895;28;20017;-71
2023/01/18 04:32:02;;;;;;;20.58;11.18;;;;;;;-2.78;93.07;99224.84;5023709;28;20029;-71
2023/01/18 04:34:27;;;;;;;20.52;11.52;;;;;;;-2.78;92.89;99222.28;5023789;28;20487;-71
2023/01/18 04:36:53;;;;;;;21.23;11.48;;;;;;;-2.77;93.03;99231.66;5024304;28;20904;-64
2023/01/18 04:39:18;;;;;;;21.10;11.10;;;;;;;-2.75;93.02;99224.09;5023919;28;20033;-63
2023/01/18 04:41:44;;;;;;;21.40;11.65;;;;;;;-2.75;93.21;99226.63;5023446;28;20021;-63
2023/01/18 04:44:09;;;;;;;22.25;12.52;;;;;;;-2.75;93.85;99232.63;5023759;28;20048;-63
2023/01/18 04:46:37;;;;;;;21.95;11.60;;;;;;;-2.74;93.77;99236.03;5023954;28;20025;-63
2023/01/18 04:49:02;;;;;;;22.23;11.95;;;;;;;-2.74;93.66;99242.00;5023565;28;20049;-63
2023/01/18 04:51:30;;;;;;;21.40;12.18;;;;;;;-2.74;93.65;99230.94;5023769;28;20033;-63
2023/01/18 04:53:55;;;;;;;23.25;12.10;;;;;;;-2.73;93.72;99231.03;5023988;28;20021;-63
2023/01/18 04:56:20;;;;;;;22.02;12.20;;;;;;;-2.71;93.57;99242.19;5026424;28;20033;-64
2023/01/18 04:58:46;;;;;;;25.80;12.13;;;;;;;-2.70;93.67;99236.28;5027565;28;20037;-63
2023/01/18 05:01:12;;;;;;;20.77;12.43;;;;;;;-2.67;93.59;99243.22;5027679;28;20041;-64
2023/01/18 05:03:38;;;;;;;20.02;12.35;;;;;;;-2.66;93.21;99245.81;5027728;28;20088;-63
2023/01/18 05:06:05;;;;;;;19.98;12.20;;;;;;;-2.67;93.53;99248.31;5027791;28;20045;-63
2023/01/18 05:08:31;;;;;;;21.38;12.57;;;;;;;-2.68;93.41;99255.09;5027779;28;20028;-63
2023/01/18 05:11:16;;;;;;;27.80;12.48;;;;;;;-2.67;93.60;99259.38;5027527;28;20021;-63
2023/01/18 05:13:43;;;;;;;22.60;11.77;;;;;;;-2.66;93.61;99267.91;5027033;28;20033;-63
2023/01/18 05:16:14;;;;;;;22.55;12.93;;;;;;;-2.66;92.90;99268.78;5026957;28;20041;-63
2023/01/18 05:18:39;;;;;;;25.85;12.75;;;;;;;-2.65;93.42;99275.63;5043131;28;20034;-63
2023/01/18 05:21:05;;;;;;;22.10;12.90;;;;;;;-2.64;93.31;99262.09;5027164;28;20030;-63
2023/01/18 05:23:30;;;;;;;25.95;13.02;;;;;;;-2.66;93.51;99266.22;5026875;28;20033;-63
2023/01/18 05:25:57;;;;;;;23.50;12.88;;;;;;;-2.64;94.03;99276.50;5027035;28;20033;-63
2023/01/18 05:28:24;;;;;;;22.20;12.10;;;;;;;-2.67;93.91;99276.34;5026928;28;20021;-63
2023/01/18 05:30:50;;;;;;;23.95;13.00;;;;;;;-2.67;94.21;99278.91;5026883;28;20514;-63
2023/01/18 05:33:19;;;;;;;22.55;13.20;;;;;;;-2.69;94.03;99278.81;5026685;28;20022;-63
2023/01/18 05:35:49;;;;;;;;;;;;;;;-2.66;93.87;99278.09;5025906;28;20032;-63
2023/01/18 05:38:14;;;;;;;;;;;;;;;-2.65;93.23;99278.19;5027409;28;19933;-70
2023/01/18 05:40:42;;;;;;;22.88;12.50;;;;;;;-2.69;94.14;99283.91;5027061;28;19917;-71
2023/01/18 05:43:07;;;;;;;26.23;13.07;;;;;;;-2.70;93.82;99287.25;5027008;28;20115;-71
2023/01/18 05:45:33;;;;;;;26.08;14.00;;;;;;;-2.69;94.29;99286.47;5026982;28;21144;-71
2023/01/18 05:47:58;;;;;;;26.02;14.05;;;;;;;-2.68;94.17;99290.78;5026527;28;20041;-71
2023/01/18 05:50:23;;;;;;;27.20;15.25;;;;;;;-2.69;93.90;99286.47;5026521;28;20154;-71
2023/01/18 05:52:49;;;;;;;25.23;14.00;;;;;;;-2.68;94.07;99294.97;5026592;28;20501;-71
2023/01/18 05:55:14;;;;;;;25.88;14.68;;;;;;;-2.68;94.05;99293.31;5026435;28;20040;-71
2023/01/18 05:57:39;;;;;;;24.60;14.38;;;;;;;-2.68;94.91;99303.53;5026588;28;20239;-71
2023/01/18 06:00:05;;;;;;;24.92;14.75;;;;;;;-2.68;94.26;99300.97;5026191;28;20048;-71
2023/01/18 06:02:31;;;;;;;24.20;14.25;;;;;;;-2.67;94.32;99307.81;5026194;28;20025;-70
2023/01/18 06:04:56;;;;;;;27.13;14.27;;;;;;;-2.66;94.44;99303.59;5024306;28;20022;-71
2023/01/18 06:07:21;;;;;;;23.73;14.00;;;;;;;-2.66;94.38;99304.47;5026372;28;20384;-71
2023/01/18 06:09:47;;;;;;;27.65;15.65;;;;;;;-2.66;93.98;99304.47;5026752;28;20040;-71
2023/01/18 06:12:12;;;;;;;28.35;14.73;;;;;;;-2.66;94.14;99303.59;5025919;28;20128;-71
2023/01/18 06:14:37;;;;;;;27.58;14.98;;;;;;;-2.66;93.79;99309.56;5025841;28;20108;-71
2023/01/18 06:17:03;;;;;;;22.98;14.80;;;;;;;-2.67;94.25;99324.78;5025648;28;20075;-70
2023/01/18 06:19:28;;;;;;;26.20;15.02;;;;;;;-2.70;94.44;99328.03;5026220;28;20030;-71
2023/01/18 06:21:54;;;;;;;26.40;15.18;;;;;;;-2.73;93.85;99325.34;5025637;28;20021;-71
2023/01/18 06:24:19;;;;;;;26.13;15.70;;;;;;;-2.74;94.09;99332.91;5025757;28;20033;-71
2023/01/18 06:26:44;;;;;;;26.10;15.07;;;;;;;-2.78;94.61;99338.63;5026460;28;20026;-71
2023/01/18 06:29:10;;;;;;;28.02;15.27;;;;;;;-2.81;94.11;99344.44;5026404;28;20037;-70
2023/01/18 06:31:35;;;;;;;25.83;14.88;;;;;;;-2.84;94.25;99342.63;5026132;28;20479;-70
2023/01/18 06:34:08;;;;;;;26.17;14.93;;;;;;;-2.85;94.11;99353.63;5025329;28;20278;-70
2023/01/18 06:36:34;;;;;;;24.10;14.85;;;;;;;-2.83;94.55;99356.25;5025944;28;20037;-70
2023/01/18 06:39:00;;;;;;;27.60;14.85;;;;;;;-2.82;94.45;99355.47;5025644;28;20108;-71
2023/01/18 06:41:25;;;;;;;28.70;14.73;;;;;;;-2.81;94.32;99350.44;5025839;28;20171;-70
2023/01/18 06:43:50;;;;;;;25.60;14.57;;;;;;;-2.81;94.70;99349.53;5025951;28;20041;-70
2023/01/18 06:46:18;;;;;;;27.45;15.15;;;;;;;-2.82;94.61;99351.22;5025439;28;20025;-71
2023/01/18 06:48:43;;;;;;;26.38;14.82;;;;;;;-2.84;94.48;99363.03;5025605;28;20407;-70
2023/01/18 06:51:11;;;;;;;26.85;15.30;;;;;;;-2.86;94.54;99368.84;5025891;28;20500;-70
2023/01/18 06:53:36;;;;;;;26.90;15.70;;;;;;;-2.87;94.74;99369.63;5025765;28;20866;-71
2023/01/18 06:56:02;;;;;;;27.42;15.88;;;;;;;-2.89;94.85;99373.78;5025299;28;20052;-71
2023/01/18 06:58:29;;;;;;;27.02;15.45;;;;;;;-2.91;94.77;99381.34;5025301;28;20041;-70
2023/01/18 07:00:57;;;;;;;26.60;15.68;;;;;;;-2.91;95.22;99380.44;5025181;28;20087;-70
2023/01/18 07:03:23;;;;;;;29.50;15.60;;;;;;;-2.91;94.83;99383.88;5025096;28;20386;-70
2023/01/18 07:05:48;;;;;;;25.65;16.00;;;;;;;-2.90;94.98;99388.16;5025623;28;20029;-71
2023/01/18 07:08:13;;;;;;;27.63;15.27;;;;;;;-2.90;94.45;99393.25;5025378;28;20473;-70
2023/01/18 07:10:39;;;;;;;28.42;15.57;;;;;;;-2.89;94.81;99402.69;5025803;28;20112;-70
2023/01/18 07:13:04;;;;;;;25.50;14.50;;;;;;;-2.88;94.55;99401.00;5024448;28;20419;-70
2023/01/18 07:15:29;;;;;;;23.88;14.27;;;;;;;-2.86;94.57;99396.88;5024565;28;20094;-70
2023/01/18 07:17:55;;;;;;;29.60;14.50;;;;;;;-2.85;94.89;99406.28;5024437;28;20029;-70
2023/01/18 07:20:20;;;;;;;25.15;14.43;;;;;;;-2.83;94.89;99399.56;5025249;28;21060;-71
2023/01/18 07:22:49;;;;;;;26.75;15.15;;;;;;;-2.85;94.52;99402.03;5025269;28;20104;-70
2023/01/18 07:25:17;;;;;;;25.88;14.93;;;;;;;-2.81;94.92;99410.72;5025429;28;20112;-70
2023/01/18 07:27:42;;;;;;;23.92;14.60;;;;;;;-2.79;94.77;99411.69;5024963;28;20616;-70
2023/01/18 07:30:11;;;;;;;24.00;14.20;;;;;;;-2.77;94.92;99406.69;5024761;28;20030;-70
2023/01/18 07:32:36;;;;;;;27.20;15.13;;;;;;;-2.78;94.74;99408.38;5024554;28;20376;-71
2023/01/18 07:35:04;;;;;;;27.13;15.07;;;;;;;-2.78;94.85;99416.00;5024930;28;20911;-70
2023/01/18 07:37:29;;;;;;;26.15;15.35;;;;;;;-2.79;94.65;99416.78;5024785;28;20112;-63
2023/01/18 07:39:55;;;;;;;25.20;14.48;;;;;;;-2.78;95.11;99416.00;5023783;28;20159;-63
2023/01/18 07:42:20;;;;;;;25.80;14.30;;;;;;;-2.78;94.78;99422.75;5024106;28;20112;-63
2023/01/18 07:44:45;;;;;;;25.98;14.77;;;;;;;-2.79;94.61;99419.34;5025038;28;20014;-63
2023/01/18 07:47:10;;;;;;;24.58;14.63;;;;;;;-2.79;95.32;99424.44;5023646;28;20060;-63
2023/01/18 07:49:36;;;;;;;26.30;15.20;;;;;;;-2.79;95.10;99421.91;5024675;28;20060;-63
2023/01/18 07:52:01;;;;;;;26.08;15.02;;;;;;;-2.81;94.61;99431.09;5024617;28;20029;-63
2023/01/18 07:54:26;;;;;;;25.02;14.05;;;;;;;-2.83;94.96;99432.72;5023091;28;20498;-63
2023/01/18 07:56:52;;;;;;;26.60;15.02;;;;;;;-2.82;95.43;99439.56;5024629;28;20408;-63
2023/01/18 07:59:17;;;;;;;27.05;15.00;;;;;;;-2.84;95.06;99434.41;5023525;28;20037;-63
2023/01/18 08:01:42;;;;;;;27.30;15.25;;;;;;;-2.84;95.48;99430.94;5023634;28;20071;-63
2023/01/18 08:04:08;;;;;;;25.08;14.32;;;;;;;-2.84;95.72;99438.59;5024173;28;20075;-63
2023/01/18 08:06:33;;;;;;;25.25;14.57;;;;;;;-2.85;95.21;99437.72;5024080;28;20415;-63
2023/01/18 08:08:58;;;;;;;26.88;15.40;;;;;;;-2.83;95.48;99442.91;5024379;28;20078;-63
2023/01/18 08:11:24;;;;;;;25.40;14.63;;;;;;;-2.83;95.32;99453.09;5023190;28;20013;-63
2023/01/18 08:13:51;;;;;;;26.92;14.55;;;;;;;-2.82;95.68;99454.88;5024108;28;20482;-63
2023/01/18 08:16:17;;;;;;;25.25;14.48;;;;;;;-2.81;95.73;99464.25;5024512;28;20030;-63
2023/01/18 08:18:44;;;;;;;26.10;13.55;;;;;;;-2.77;95.71;99460.22;5023252;28;20025;-63
2023/01/18 08:21:11;;;;;;;26.42;14.90;;;;;;;-2.76;95.64;99460.28;5024316;28;20506;-63
2023/01/18 08:23:37;;;;;;;25.00;13.88;;;;;;;-2.75;95.39;99451.84;5021973;28;20601;-63
2023/01/18 08:26:03;;;;;;;25.40;14.13;;;;;;;-2.73;95.36;99460.44;5024184;28;20029;-63
2023/01/18 08:28:29;;;;;;;26.25;14.70;;;;;;;-2.73;95.52;99465.53;5022588;28;20513;-63
2023/01/18 08:31:05;;;;;;;25.38;14.18;;;;;;;-2.72;95.50;99464.75;5022971;28;20067;-63
2023/01/18 08:33:30;;;;;;;23.52;14.63;;;;;;;-2.70;96.14;99464.84;5023158;28;20060;-63
2023/01/18 08:35:56;;;;;;;24.88;14.75;;;;;;;-2.66;95.57;99464.22;5023011;28;20056;-63
2023/01/18 08:38:22;;;;;;;22.75;14.18;;;;;;;-2.64;95.54;99475.38;5023114;28;20041;-70
2023/01/18 08:40:47;;;;;;;21.67;13.48;;;;;;;-2.60;95.67;99478.97;5023740;28;20104;-70
2023/01/18 08:43:12;;;;;;;25.95;14.15;;;;;;;-2.56;95.84;99483.41;5023136;28;21097;-70
2023/01/18 08:45:38;;;;;;;22.45;13.68;;;;;;;-2.53;95.94;99493.81;5023486;28;20033;-70
2023/01/18 08:48:09;;;;;;;25.15;14.10;;;;;;;-2.51;96.04;99492.19;5023422;28;20029;-70
2023/01/18 08:50:35;;;;;;;21.63;13.73;;;;;;;-2.49;95.88;99495.69;5022581;28;20111;-70
2023/01/18 08:53:01;;;;;;;25.45;13.63;;;;;;;-2.47;95.71;99502.66;5022992;28;20115;-70
2023/01/18 08:55:28;;;;;;;22.25;13.63;;;;;;;-2.42;95.65;99508.00;5021557;28;20018;-70
2023/01/18 08:57:54;;;;;;;23.40;14.00;;;;;;;-2.38;95.73;99507.34;5030094;28;20045;-70
2023/01/18 09:00:23;;;;;;;23.80;13.50;;;;;;;-2.34;95.63;99505.88;5022779;28;20037;-70
2023/01/18 09:02:49;;;;;;;25.20;14.30;;;;;;;-2.30;95.44;99507.78;5022870;28;20045;-70
2023/01/18 09:05:14;;;;;;;25.55;13.63;;;;;;;-2.28;95.97;99507.03;5022608;28;20446;-70
2023/01/18 09:07:40;;;;;;;21.40;13.13;;;;;;;-2.24;95.63;99517.44;5022514;28;20021;-70
2023/01/18 09:10:07;;;;;;;23.55;13.48;;;;;;;-2.20;96.00;99516.78;5023062;28;20463;-71
2023/01/18 09:12:33;;;;;;;24.83;13.52;;;;;;;-2.18;95.56;99520.31;5022954;28;20503;-70
2023/01/18 09:14:59;;;;;;;22.92;13.30;;;;;;;-2.15;95.59;99507.72;5022879;28;20037;-71
2023/01/18 09:17:24;;;;;;;26.73;14.48;;;;;;;-2.12;95.53;99520.63;5022901;28;20037;-70
2023/01/18 09:19:49;;;;;;;25.55;14.05;;;;;;;-2.08;95.88;99525.09;5021561;28;20044;-70
2023/01/18 09:22:15;;;;;;;22.27;13.95;;;;;;;-2.05;95.55;99529.50;5021875;28;20037;-70
2023/01/18 09:24:41;;;;;;;23.60;13.57;;;;;;;-2.02;95.29;99535.63;5023198;28;20039;-70
2023/01/18 09:27:06;;;;;;;23.02;12.85;;;;;;;-1.98;95.98;99542.66;5022486;28;21500;-70
2023/01/18 09:29:32;;;;;;;22.10;13.48;;;;;;;-1.92;95.75;99545.50;5023401;28;20037;-67
2023/01/18 09:31:58;;;;;;;23.60;13.90;;;;;;;-1.86;95.85;99546.63;5021806;28;20022;-67
2023/01/18 09:34:23;;;;;;;24.42;13.85;;;;;;;-1.81;95.42;99550.28;5022940;28;20108;-67
2023/01/18 09:36:50;;;;;;;24.73;13.90;;;;;;;-1.76;95.78;99548.88;5023290;28;20117;-67
2023/01/18 09:39:17;;;;;;;22.00;12.98;;;;;;;-1.72;95.78;99548.22;5022899;28;20022;-67
2023/01/18 09:41:48;;;;;;;21.23;12.75;;;;;;;-1.66;95.22;99556.19;5024200;28;20308;-67
2023/01/18 09:44:48;;;;;;;21.73;12.55;;;;;;;-1.57;95.73;99561.78;5026770;28;20048;-67
2023/01/18 09:47:24;;;;;;;21.52;12.65;;;;;;;-1.49;95.73;99563.84;5004368;28;20156;-68
2023/01/18 09:49:55;;;;;;;22.70;12.80;;;;;;;-1.44;95.23;99570.94;5026445;28;20036;-67
2023/01/18 09:52:30;;;;;;;22.38;13.18;;;;;;;-1.36;95.09;99575.56;5026196;28;20120;-67
2023/01/18 09:55:17;;;;;;;23.27;13.15;;;;;;;-1.29;95.68;99570.84;5026174;28;20029;-67
2023/01/18 09:58:00;;;;;;;22.27;13.30;;;;;;;-1.21;95.49;99572.91;5026746;28;20021;-66
2023/01/18 10:00:32;;;;;;;22.83;13.25;;;;;;;-1.15;95.11;99574.09;5026268;28;20103;-66
2023/01/18 10:03:03;;;;;;;24.90;12.55;;;;;;;-1.10;95.06;99570.09;5026377;28;20041;-66
2023/01/18 10:05:33;;;;;;;19.52;12.65;;;;;;;-1.03;95.27;99571.25;5025498;28;20565;-66
2023/01/18 10:08:22;;;;;;;21.15;13.02;;;;;;;-0.96;94.65;99577.56;5026238;28;20047;-67
2023/01/18 10:10:47;;;;;;;19.25;12.18;;;;;;;-0.91;94.51;99569.31;5025751;28;20036;-66
2023/01/18 10:13:21;;;;;;;21.20;12.80;;;;;;;-0.85;95.18;99578.06;5026284;28;20033;-66
2023/01/18 10:15:48;;;;;;;18.17;12.15;;;;;;;-0.79;95.06;99575.81;5024259;28;20033;-66
2023/01/18 10:18:16;;;;;;;20.05;12.60;;;;;;;-0.72;94.62;99580.44;5025741;28;20064;-66
2023/01/18 10:20:57;;;;;;;18.90;12.50;;;;;;;-0.66;94.69;99580.72;5025749;28;20072;-66
2023/01/18 10:23:33;;;;;;;18.95;12.25;;;;;;;-0.60;94.82;99578.44;5025742;28;20386;-66
2023/01/18 10:26:15;;;;;;;22.60;12.35;;;;;;;-0.54;95.20;99582.97;5025917;28;20029;-66
2023/01/18 10:29:11;;;;;;;20.92;12.10;;;;;;;-0.47;94.19;99594.38;5041973;28;20029;-66
2023/01/18 10:31:56;;;;;;;19.92;12.13;;;;;;;-0.41;94.12;99584.44;5025489;28;20032;-66
2023/01/18 10:34:25;;;;;;;18.67;11.70;;;;;;;-0.38;94.06;99580.34;5025976;28;20032;-66
2023/01/18 10:36:54;;;;;;;20.15;12.48;;;;;;;-0.31;95.11;99584.06;5025727;28;20030;-66
2023/01/18 10:39:31;;;;;;;;;;;;;;;-0.24;94.83;99596.34;5025655;28;20559;-66
2023/01/18 10:42:00;;;;;;;20.77;12.38;;;;;;;-0.21;94.57;99588.78;5023766;28;19975;-67
2023/01/18 10:44:26;;;;;;;19.75;11.88;;;;;;;-0.14;94.22;99583.97;5025564;28;20118;-67
2023/01/18 10:46:57;;;;;;;21.92;12.95;;;;;;;-0.08;94.54;99584.25;5025789;28;20061;-66
2023/01/18 10:49:38;;;;;;;18.25;11.80;;;;;;;-0.02;94.13;99584.53;5025101;28;20036;-66
2023/01/18 10:52:24;;;;;;;19.35;11.90;;;;;;;0.05;93.93;99581.44;5024757;28;20029;-66
2023/01/18 10:54:54;;;;;;;22.05;12.43;;;;;;;0.10;93.55;99585.09;5024671;28;20033;-66
2023/01/18 10:57:24;;;;;;;19.90;12.40;;;;;;;0.16;93.94;99594.75;5025484;28;20123;-66
2023/01/18 10:59:52;;;;;;;18.85;12.43;;;;;;;0.20;94.00;99591.47;5024946;28;20054;-66
2023/01/18 11:02:33;;;;;;;19.25;12.10;;;;;;;0.27;93.38;99592.66;5025551;28;20080;-66
2023/01/18 11:05:05;;;;;;;17.55;11.55;;;;;;;0.33;93.59;99598.94;5025256;28;20108;-66
2023/01/18 11:07:30;;;;;;;20.95;11.10;;;;;;;0.39;93.62;99593.19;5025711;28;20029;-66
2023/01/18 11:10:00;;;;;;;18.23;11.75;;;;;;;0.44;93.28;99594.25;5025318;28;20583;-66
2023/01/18 11:12:50;;;;;;;;;;;;;;;0.51;93.32;99598.84;5025715;28;20029;-66
2023/01/18 11:15:16;;;;;;;18.75;11.18;;;;;;;0.57;93.05;99597.38;5025148;28;20422;-66
2023/01/18 11:17:59;;;;;;;18.60;11.27;;;;;;;0.63;92.09;99610.44;5024648;28;20029;-66
2023/01/18 11:20:56;;;;;;;18.50;10.93;;;;;;;0.68;92.02;99608.94;5024500;28;20025;-66
2023/01/18 11:23:36;;;;;;;18.08;11.13;;;;;;;0.73;90.88;99604.91;4995949;28;20130;-66
2023/01/18 11:26:12;;;;;;;20.05;11.43;;;;;;;0.78;91.87;99599.97;5024488;28;20123;-66
2023/01/18 11:28:59;;;;;;;19.33;11.50;;;;;;;0.84;93.07;99593.41;5025246;28;20034;-66
2023/01/18 11:31:27;;;;;;;17.30;10.90;;;;;;;0.90;92.56;99591.91;5024219;28;20147;-66
2023/01/18 11:34:02;;;;;;;17.13;11.43;;;;;;;0.96;92.24;99587.91;5024539;28;20574;-66
2023/01/18 11:36:44;;;;;;;17.77;11.63;;;;;;;1.00;92.26;99584.69;5024647;28;20573;-66
2023/01/18 11:39:23;;;;;;;18.80;10.95;;;;;;;1.07;91.42;99590.06;5024397;28;20025;-66
2023/01/18 11:41:49;;;;;;;17.65;11.80;;;;;;;1.10;91.42;99588.50;5024467;28;20037;-69
2023/01/18 11:44:26;;;;;;;18.60;11.70;;;;;;;1.16;91.21;99590.41;5024172;28;20027;-68
2023/01/18 11:46:57;;;;;;;20.70;11.85;;;;;;;1.21;90.77;99587.22;5024663;28;20045;-69
2023/01/18 11:49:41;;;;;;;15.27;10.35;;;;;;;1.28;90.05;99584.94;5024214;28;20017;-69
2023/01/18 11:52:45;;;;;;;17.92;11.15;;;;;;;1.33;90.33;99591.09;5024398;28;20041;-69
2023/01/18 11:55:24;;;;;;;15.70;10.43;;;;;;;1.38;89.99;99589.63;5024035;28;20112;-69
2023/01/18 11:57:52;;;;;;;16.70;10.27;;;;;;;1.44;90.26;99597.56;5024230;28;20025;-69
2023/01/18 12:00:23;;;;;;;17.37;10.73;;;;;;;1.50;90.08;99592.66;5023564;28;20778;-69
2023/01/18 12:03:03;;;;;;;16.85;10.55;;;;;;;1.56;89.93;99592.91;5024251;28;20300;-69
2023/01/18 12:05:41;;;;;;;17.63;9.48;;;;;;;1.63;89.07;99598.28;5023971;28;20543;-69